createdAt,value
2023-03-22T00:02:00.636Z,7.72
2023-03-22T00:08:05.870Z,9.95
2023-03-22T00:14:07.696Z,9.30
2023-03-22T00:20:10.150Z,9.27
2023-03-22T00:26:13.610Z,9.63
2023-03-22T00:32:15.548Z,12.38
2023-03-22T00:38:17.588Z,8.82
2023-03-22T00:44:19.739Z,9.68
2023-03-22T00:50:21.551Z,10.90
2023-03-22T00:56:25.672Z,8.55
2023-03-22T01:02:29.827Z,12.30
2023-03-22T01:08:33.733Z,9.80
2023-03-22T01:14:35.996Z,8.87
2023-03-22T01:20:38.652Z,11.57
2023-03-22T01:26:40.790Z,12.90
2023-03-22T01:32:42.848Z,9.20
2023-03-22T01:38:44.929Z,10.38
2023-03-22T01:45:16.713Z,13.25
2023-03-22T01:51:23.141Z,10.43
2023-03-22T01:57:25.786Z,6.95
2023-03-22T02:04:07.376Z,9.82
2023-03-22T02:10:19.314Z,10.55
2023-03-22T02:16:21.136Z,9.65
2023-03-22T02:22:44.512Z,11.65
2023-03-22T02:29:04.859Z,8.98
2023-03-22T02:35:44.333Z,9.15
2023-03-22T02:42:12.532Z,12.40
2023-03-22T02:48:24.660Z,10.25
2023-03-22T02:54:33.247Z,11.15
2023-03-22T03:00:36.722Z,9.85
2023-03-22T03:06:46.200Z,9.30
2023-03-22T03:12:48.254Z,10.07
2023-03-22T03:18:58.959Z,9.57
2023-03-22T03:25:12.546Z,10.30
2023-03-22T03:31:27.287Z,8.70
2023-03-22T03:37:41.689Z,8.45
2023-03-22T03:43:45.885Z,8.55
2023-03-22T03:49:47.724Z,9.35
2023-03-22T03:55:49.737Z,10.00
2023-03-22T04:01:52.608Z,9.93
2023-03-22T04:07:54.602Z,10.57
2023-03-22T04:13:56.636Z,10.25
2023-03-22T04:19:59.170Z,12.15
2023-03-22T04:26:01.227Z,13.40
2023-03-22T04:32:03.907Z,13.57
2023-03-22T04:38:09.797Z,10.15
2023-03-22T04:44:11.859Z,11.68
2023-03-22T04:50:15.808Z,10.25
2023-03-22T04:56:17.966Z,11.98
2023-03-22T05:02:20.004Z,11.52
2023-03-22T05:08:25.420Z,11.23
2023-03-22T05:14:27.690Z,10.80
2023-03-22T05:20:29.559Z,12.02
2023-03-22T05:26:31.478Z,12.30
2023-03-22T05:32:33.306Z,14.32
2023-03-22T05:38:35.457Z,13.68
2023-03-22T05:44:37.436Z,11.38
2023-03-22T05:50:39.587Z,10.75
2023-03-22T05:56:41.697Z,12.43
2023-03-22T06:02:46.621Z,14.75
2023-03-22T06:08:48.395Z,13.23
2023-03-22T06:14:50.533Z,11.02
2023-03-22T06:20:52.576Z,10.55
2023-03-22T06:26:54.454Z,15.40
2023-03-22T06:33:00.545Z,9.80
2023-03-22T06:39:05.203Z,9.63
2023-03-22T06:45:08.272Z,10.18
2023-03-22T06:51:10.441Z,11.73
2023-03-22T06:57:12.656Z,8.80
2023-03-22T07:03:14.674Z,9.93
2023-03-22T07:09:16.991Z,9.20
2023-03-22T07:15:20.164Z,8.93
2023-03-22T07:21:22.205Z,11.70
2023-03-22T07:27:24.230Z,9.07
2023-03-22T07:33:26.176Z,8.82
2023-03-22T07:39:29.120Z,9.52
2023-03-22T07:45:31.376Z,7.00
2023-03-22T07:51:33.254Z,9.63
2023-03-22T07:57:36.784Z,7.63
2023-03-22T08:03:39.244Z,9.77
2023-03-22T08:09:41.277Z,7.40
2023-03-22T08:15:43.554Z,8.07
2023-03-22T08:21:45.843Z,8.05
2023-03-22T08:27:47.902Z,9.50
2023-03-22T08:33:50.373Z,9.88
2023-03-22T08:39:52.834Z,7.15
2023-03-22T08:45:55.036Z,7.25
2023-03-22T08:51:58.010Z,8.65
2023-03-22T08:58:01.962Z,7.13
2023-03-22T09:04:05.253Z,9.57
2023-03-22T09:10:08.479Z,8.00
2023-03-22T09:16:11.080Z,8.57
2023-03-22T09:22:13.158Z,10.85
2023-03-22T09:28:17.314Z,7.40
2023-03-22T09:34:19.259Z,11.00
2023-03-22T09:40:25.267Z,8.50
2023-03-22T09:46:34.281Z,9.35
2023-03-22T09:52:36.213Z,8.38
2023-03-22T09:59:04.776Z,7.07
2023-03-22T10:05:17.474Z,7.38
2023-03-22T10:11:45.111Z,7.68
2023-03-22T10:17:53.307Z,7.05
2023-03-22T10:24:02.411Z,6.78
2023-03-22T10:30:24.847Z,5.10
2023-03-22T10:36:34.858Z,6.57
2023-03-22T10:42:39.610Z,3.83
2023-03-22T10:48:45.849Z,6.88
2023-03-22T10:54:47.766Z,5.57
2023-03-22T11:00:54.215Z,5.95
2023-03-22T11:06:56.569Z,4.82
2023-03-22T11:13:07.303Z,10.65
2023-03-22T11:19:14.912Z,4.95
2023-03-22T11:25:29.000Z,4.88
2023-03-22T11:31:51.565Z,4.90
2023-03-22T11:37:56.293Z,7.80
2023-03-22T11:44:04.900Z,5.17
2023-03-22T11:50:10.707Z,7.38
2023-03-22T11:56:22.085Z,4.85
2023-03-22T12:02:32.586Z,6.30
2023-03-22T12:08:46.262Z,4.53
2023-03-22T12:14:59.099Z,5.93
2023-03-22T12:21:02.087Z,4.22
2023-03-22T12:27:27.544Z,7.00
2023-03-22T12:34:01.170Z,5.70
2023-03-22T12:40:32.226Z,9.75
2023-03-22T12:46:42.311Z,5.20
2023-03-22T12:52:58.592Z,6.63
2023-03-22T12:59:05.135Z,4.70
2023-03-22T13:05:10.974Z,5.95
2023-03-22T13:11:23.970Z,7.03
2023-03-22T13:17:26.007Z,6.10
2023-03-22T13:23:28.373Z,5.03
2023-03-22T13:29:33.236Z,4.95
2023-03-22T13:36:01.436Z,6.00
2023-03-22T13:42:20.864Z,8.00
2023-03-22T13:48:41.374Z,3.85
2023-03-22T13:54:48.161Z,2.88
2023-03-22T14:00:54.913Z,2.92
2023-03-22T14:07:00.294Z,4.97
2023-03-22T14:13:24.004Z,4.50
2023-03-22T14:19:31.759Z,4.60
